sensor_id;sensor_type;location;lat;lon;timestamp;P1;durP1;ratioP1;P2;durP2;ratioP2
3757;SDS011;1894;51.038;13.692;2023-08-17T00:00:04;11.83;;;10.73;;
3757;SDS011;1894;51.038;13.692;2023-08-17T00:02:34;13.70;;;11.43;;
3757;SDS011;1894;51.038;13.692;2023-08-17T00:05:02;14.53;;;13.00;;
3757;SDS011;1894;51.038;13.692;2023-08-17T00:07:29;13.87;;;12.50;;
3757;SDS011;1894;51.038;13.692;2023-08-17T00:09:56;13.20;;;11.80;;
3757;SDS011;1894;51.038;13.692;2023-08-17T00:12:23;14.37;;;12.97;;
3757;SDS011;1894;51.038;13.692;2023-08-17T00:14:51;13.73;;;11.17;;
3757;SDS011;1894;51.038;13.692;2023-08-17T00:17:19;11.77;;;10.53;;
3757;SDS011;1894;51.038;13.692;2023-08-17T00:19:46;14.83;;;11.67;;
3757;SDS011;1894;51.038;13.692;2023-08-17T00:22:14;12.30;;;11.10;;
3757;SDS011;1894;51.038;13.692;2023-08-17T00:24:41;11.50;;;10.00;;
3757;SDS011;1894;51.038;13.692;2023-08-17T00:27:11;14.47;;;12.70;;
3757;SDS011;1894;51.038;13.692;2023-08-17T00:29:38;13.73;;;12.33;;
3757;SDS011;1894;51.038;13.692;2023-08-17T00:32:05;15.20;;;12.70;;
3757;SDS011;1894;51.038;13.692;2023-08-17T00:34:34;14.43;;;13.10;;
3757;SDS011;1894;51.038;13.692;2023-08-17T00:37:02;13.97;;;12.57;;
3757;SDS011;1894;51.038;13.692;2023-08-17T00:39:29;13.30;;;12.10;;
3757;SDS011;1894;51.038;13.692;2023-08-17T00:41:56;11.87;;;10.67;;
3757;SDS011;1894;51.038;13.692;2023-08-17T00:44:23;16.23;;;12.60;;
3757;SDS011;1894;51.038;13.692;2023-08-17T00:46:50;16.23;;;14.30;;
3757;SDS011;1894;51.038;13.692;2023-08-17T00:49:18;16.73;;;13.50;;
3757;SDS011;1894;51.038;13.692;2023-08-17T00:51:45;18.93;;;12.97;;
3757;SDS011;1894;51.038;13.692;2023-08-17T00:54:13;13.10;;;11.80;;
3757;SDS011;1894;51.038;13.692;2023-08-17T00:56:45;14.80;;;12.87;;
3757;SDS011;1894;51.038;13.692;2023-08-17T00:59:12;14.53;;;12.90;;
3757;SDS011;1894;51.038;13.692;2023-08-17T01:01:40;15.23;;;12.10;;
3757;SDS011;1894;51.038;13.692;2023-08-17T01:04:07;14.33;;;13.03;;
3757;SDS011;1894;51.038;13.692;2023-08-17T01:06:34;16.33;;;14.57;;
3757;SDS011;1894;51.038;13.692;2023-08-17T01:09:05;16.70;;;14.70;;
3757;SDS011;1894;51.038;13.692;2023-08-17T01:11:37;14.53;;;13.17;;
3757;SDS011;1894;51.038;13.692;2023-08-17T01:20:57;17.80;;;14.20;;
3757;SDS011;1894;51.038;13.692;2023-08-17T01:23:25;16.50;;;14.80;;
3757;SDS011;1894;51.038;13.692;2023-08-17T01:25:53;15.70;;;14.20;;
3757;SDS011;1894;51.038;13.692;2023-08-17T01:28:20;16.30;;;13.60;;
3757;SDS011;1894;51.038;13.692;2023-08-17T01:33:37;15.00;;;13.47;;
3757;SDS011;1894;51.038;13.692;2023-08-17T01:36:40;14.90;;;13.43;;
3757;SDS011;1894;51.038;13.692;2023-08-17T01:39:13;15.47;;;13.90;;
3757;SDS011;1894;51.038;13.692;2023-08-17T01:41:43;22.00;;;13.23;;
3757;SDS011;1894;51.038;13.692;2023-08-17T01:44:13;19.00;;;14.57;;
3757;SDS011;1894;51.038;13.692;2023-08-17T01:46:40;17.10;;;14.70;;
3757;SDS011;1894;51.038;13.692;2023-08-17T01:49:08;17.40;;;15.63;;
3757;SDS011;1894;51.038;13.692;2023-08-17T01:51:36;17.63;;;15.70;;
3757;SDS011;1894;51.038;13.692;2023-08-17T01:54:03;17.07;;;15.37;;
3757;SDS011;1894;51.038;13.692;2023-08-17T01:56:32;17.60;;;14.30;;
3757;SDS011;1894;51.038;13.692;2023-08-17T01:58:59;17.37;;;15.37;;
3757;SDS011;1894;51.038;13.692;2023-08-17T02:01:26;25.13;;;16.10;;
3757;SDS011;1894;51.038;13.692;2023-08-17T02:03:54;20.60;;;15.20;;
3757;SDS011;1894;51.038;13.692;2023-08-17T02:06:22;16.67;;;14.90;;
3757;SDS011;1894;51.038;13.692;2023-08-17T02:08:49;17.50;;;15.63;;
3757;SDS011;1894;51.038;13.692;2023-08-17T02:11:16;17.70;;;14.97;;
3757;SDS011;1894;51.038;13.692;2023-08-17T02:13:44;19.33;;;17.20;;
3757;SDS011;1894;51.038;13.692;2023-08-17T02:16:11;18.83;;;15.67;;
3757;SDS011;1894;51.038;13.692;2023-08-17T02:18:38;15.97;;;14.27;;
3757;SDS011;1894;51.038;13.692;2023-08-17T02:21:05;15.80;;;14.20;;
3757;SDS011;1894;51.038;13.692;2023-08-17T02:23:32;17.50;;;15.20;;
3757;SDS011;1894;51.038;13.692;2023-08-17T02:25:59;19.83;;;16.93;;
3757;SDS011;1894;51.038;13.692;2023-08-17T02:28:26;18.87;;;16.90;;
3757;SDS011;1894;51.038;13.692;2023-08-17T02:30:56;19.30;;;17.27;;
3757;SDS011;1894;51.038;13.692;2023-08-17T02:33:26;21.00;;;16.00;;
3757;SDS011;1894;51.038;13.692;2023-08-17T02:35:55;23.57;;;17.37;;
3757;SDS011;1894;51.038;13.692;2023-08-17T02:38:22;19.27;;;17.47;;
3757;SDS011;1894;51.038;13.692;2023-08-17T02:40:49;21.60;;;19.50;;
3757;SDS011;1894;51.038;13.692;2023-08-17T02:43:17;21.20;;;17.60;;
3757;SDS011;1894;51.038;13.692;2023-08-17T02:45:44;19.40;;;17.50;;
3757;SDS011;1894;51.038;13.692;2023-08-17T02:48:11;20.70;;;16.60;;
3757;SDS011;1894;51.038;13.692;2023-08-17T02:50:38;17.27;;;15.47;;
3757;SDS011;1894;51.038;13.692;2023-08-17T02:53:05;21.13;;;17.70;;
3757;SDS011;1894;51.038;13.692;2023-08-17T02:55:33;22.97;;;18.63;;
3757;SDS011;1894;51.038;13.692;2023-08-17T02:58:00;22.03;;;17.23;;
3757;SDS011;1894;51.038;13.692;2023-08-17T03:00:27;21.00;;;16.30;;
3757;SDS011;1894;51.038;13.692;2023-08-17T03:02:56;20.73;;;15.80;;
3757;SDS011;1894;51.038;13.692;2023-08-17T03:05:24;18.40;;;16.57;;
3757;SDS011;1894;51.038;13.692;2023-08-17T03:07:51;16.93;;;15.13;;
3757;SDS011;1894;51.038;13.692;2023-08-17T03:10:18;15.87;;;13.77;;
3757;SDS011;1894;51.038;13.692;2023-08-17T03:12:46;20.10;;;15.20;;
3757;SDS011;1894;51.038;13.692;2023-08-17T03:15:13;16.87;;;14.83;;
3757;SDS011;1894;51.038;13.692;2023-08-17T03:17:41;17.10;;;15.30;;
3757;SDS011;1894;51.038;13.692;2023-08-17T03:20:08;17.00;;;14.37;;
3757;SDS011;1894;51.038;13.692;2023-08-17T03:22:36;15.53;;;14.03;;
3757;SDS011;1894;51.038;13.692;2023-08-17T03:25:04;15.90;;;14.33;;
3757;SDS011;1894;51.038;13.692;2023-08-17T03:27:32;15.87;;;14.40;;
3757;SDS011;1894;51.038;13.692;2023-08-17T03:30:00;24.73;;;16.67;;
3757;SDS011;1894;51.038;13.692;2023-08-17T03:32:28;15.50;;;13.90;;
3757;SDS011;1894;51.038;13.692;2023-08-17T03:34:55;17.27;;;15.47;;
3757;SDS011;1894;51.038;13.692;2023-08-17T03:37:22;16.13;;;14.37;;
3757;SDS011;1894;51.038;13.692;2023-08-17T03:39:50;16.73;;;14.33;;
3757;SDS011;1894;51.038;13.692;2023-08-17T03:42:17;16.67;;;15.07;;
3757;SDS011;1894;51.038;13.692;2023-08-17T03:44:45;19.83;;;15.87;;
3757;SDS011;1894;51.038;13.692;2023-08-17T03:47:12;18.03;;;16.33;;
3757;SDS011;1894;51.038;13.692;2023-08-17T03:49:39;22.63;;;17.07;;
3757;SDS011;1894;51.038;13.692;2023-08-17T03:52:06;21.07;;;16.80;;
3757;SDS011;1894;51.038;13.692;2023-08-17T03:54:33;20.73;;;16.50;;
3757;SDS011;1894;51.038;13.692;2023-08-17T03:57:00;24.67;;;19.33;;
3757;SDS011;1894;51.038;13.692;2023-08-17T03:59:28;18.23;;;16.00;;
3757;SDS011;1894;51.038;13.692;2023-08-17T04:01:55;18.13;;;16.20;;
3757;SDS011;1894;51.038;13.692;2023-08-17T04:04:22;16.63;;;14.77;;
3757;SDS011;1894;51.038;13.692;2023-08-17T04:06:49;20.23;;;16.73;;
3757;SDS011;1894;51.038;13.692;2023-08-17T04:09:17;19.23;;;17.27;;
3757;SDS011;1894;51.038;13.692;2023-08-17T04:11:44;19.60;;;16.00;;
3757;SDS011;1894;51.038;13.692;2023-08-17T04:14:12;19.23;;;16.33;;
3757;SDS011;1894;51.038;13.692;2023-08-17T04:16:40;19.27;;;16.60;;
3757;SDS011;1894;51.038;13.692;2023-08-17T04:19:08;18.87;;;17.00;;
3757;SDS011;1894;51.038;13.692;2023-08-17T04:21:35;17.47;;;15.77;;
3757;SDS011;1894;51.038;13.692;2023-08-17T04:24:03;16.43;;;14.83;;
3757;SDS011;1894;51.038;13.692;2023-08-17T04:26:30;17.47;;;15.77;;
3757;SDS011;1894;51.038;13.692;2023-08-17T04:28:58;24.60;;;21.97;;
3757;SDS011;1894;51.038;13.692;2023-08-17T04:31:26;18.87;;;16.90;;
3757;SDS011;1894;51.038;13.692;2023-08-17T04:33:59;16.20;;;14.67;;
3757;SDS011;1894;51.038;13.692;2023-08-17T04:36:29;19.00;;;16.70;;
3757;SDS011;1894;51.038;13.692;2023-08-17T04:38:57;17.10;;;14.73;;
3757;SDS011;1894;51.038;13.692;2023-08-17T04:41:24;16.20;;;14.50;;
3757;SDS011;1894;51.038;13.692;2023-08-17T04:43:53;15.50;;;13.23;;
3757;SDS011;1894;51.038;13.692;2023-08-17T04:46:20;16.70;;;13.10;;
3757;SDS011;1894;51.038;13.692;2023-08-17T04:48:48;18.93;;;14.30;;
3757;SDS011;1894;51.038;13.692;2023-08-17T04:51:16;13.63;;;12.20;;
3757;SDS011;1894;51.038;13.692;2023-08-17T04:53:44;18.63;;;14.93;;
3757;SDS011;1894;51.038;13.692;2023-08-17T04:56:11;15.00;;;13.47;;
3757;SDS011;1894;51.038;13.692;2023-08-17T04:58:38;16.53;;;14.37;;
3757;SDS011;1894;51.038;13.692;2023-08-17T05:01:06;14.80;;;13.10;;
3757;SDS011;1894;51.038;13.692;2023-08-17T05:03:33;20.50;;;13.90;;
3757;SDS011;1894;51.038;13.692;2023-08-17T05:06:02;16.90;;;15.20;;
3757;SDS011;1894;51.038;13.692;2023-08-17T05:08:31;17.20;;;14.63;;
3757;SDS011;1894;51.038;13.692;2023-08-17T05:11:00;16.13;;;12.73;;
3757;SDS011;1894;51.038;13.692;2023-08-17T05:13:27;12.47;;;11.27;;
3757;SDS011;1894;51.038;13.692;2023-08-17T05:15:58;14.57;;;13.07;;
3757;SDS011;1894;51.038;13.692;2023-08-17T05:18:26;15.23;;;13.77;;
3757;SDS011;1894;51.038;13.692;2023-08-17T05:20:53;17.90;;;12.60;;
3757;SDS011;1894;51.038;13.692;2023-08-17T05:23:21;15.50;;;13.93;;
3757;SDS011;1894;51.038;13.692;2023-08-17T05:25:49;14.13;;;12.67;;
3757;SDS011;1894;51.038;13.692;2023-08-17T05:28:16;18.13;;;11.40;;
3757;SDS011;1894;51.038;13.692;2023-08-17T05:30:43;16.70;;;13.50;;
3757;SDS011;1894;51.038;13.692;2023-08-17T05:33:11;19.43;;;12.80;;
3757;SDS011;1894;51.038;13.692;2023-08-17T05:35:38;16.87;;;12.90;;
3757;SDS011;1894;51.038;13.692;2023-08-17T05:38:05;20.03;;;14.13;;
3757;SDS011;1894;51.038;13.692;2023-08-17T05:40:32;14.23;;;12.60;;
3757;SDS011;1894;51.038;13.692;2023-08-17T05:43:00;14.63;;;13.13;;
3757;SDS011;1894;51.038;13.692;2023-08-17T05:45:28;17.50;;;14.00;;
3757;SDS011;1894;51.038;13.692;2023-08-17T05:47:55;13.77;;;12.13;;
3757;SDS011;1894;51.038;13.692;2023-08-17T05:50:22;14.43;;;12.50;;
3757;SDS011;1894;51.038;13.692;2023-08-17T05:52:49;13.93;;;12.40;;
3757;SDS011;1894;51.038;13.692;2023-08-17T05:55:16;14.80;;;13.30;;
3757;SDS011;1894;51.038;13.692;2023-08-17T05:57:43;18.23;;;14.40;;
3757;SDS011;1894;51.038;13.692;2023-08-17T06:00:11;16.80;;;15.10;;
3757;SDS011;1894;51.038;13.692;2023-08-17T06:02:41;31.30;;;22.50;;
3757;SDS011;1894;51.038;13.692;2023-08-17T06:05:08;17.03;;;15.30;;
3757;SDS011;1894;51.038;13.692;2023-08-17T06:07:36;19.43;;;16.53;;
3757;SDS011;1894;51.038;13.692;2023-08-17T06:10:03;19.13;;;15.90;;
3757;SDS011;1894;51.038;13.692;2023-08-17T06:12:32;24.63;;;20.83;;
3757;SDS011;1894;51.038;13.692;2023-08-17T06:15:01;18.00;;;16.20;;
3757;SDS011;1894;51.038;13.692;2023-08-17T06:17:29;17.93;;;16.00;;
3757;SDS011;1894;51.038;13.692;2023-08-17T06:19:57;14.03;;;12.47;;
3757;SDS011;1894;51.038;13.692;2023-08-17T06:22:24;18.53;;;15.37;;
3757;SDS011;1894;51.038;13.692;2023-08-17T06:24:51;18.13;;;14.27;;
3757;SDS011;1894;51.038;13.692;2023-08-17T06:27:18;15.00;;;12.20;;
3757;SDS011;1894;51.038;13.692;2023-08-17T06:29:45;16.30;;;12.63;;
3757;SDS011;1894;51.038;13.692;2023-08-17T06:32:13;12.40;;;11.30;;
3757;SDS011;1894;51.038;13.692;2023-08-17T06:34:40;15.97;;;12.63;;
3757;SDS011;1894;51.038;13.692;2023-08-17T06:37:07;14.63;;;11.60;;
3757;SDS011;1894;51.038;13.692;2023-08-17T06:39:34;18.63;;;12.10;;
3757;SDS011;1894;51.038;13.692;2023-08-17T06:42:04;13.80;;;12.37;;
3757;SDS011;1894;51.038;13.692;2023-08-17T06:44:31;14.53;;;13.00;;
3757;SDS011;1894;51.038;13.692;2023-08-17T06:46:58;18.70;;;11.97;;
3757;SDS011;1894;51.038;13.692;2023-08-17T06:49:26;14.47;;;12.00;;
3757;SDS011;1894;51.038;13.692;2023-08-17T06:51:54;15.80;;;11.00;;
3757;SDS011;1894;51.038;13.692;2023-08-17T06:54:21;11.73;;;10.63;;
3757;SDS011;1894;51.038;13.692;2023-08-17T06:56:48;12.83;;;11.40;;
3757;SDS011;1894;51.038;13.692;2023-08-17T06:59:15;12.00;;;10.13;;
3757;SDS011;1894;51.038;13.692;2023-08-17T07:01:42;14.30;;;10.80;;
3757;SDS011;1894;51.038;13.692;2023-08-17T07:04:09;11.07;;;10.07;;
3757;SDS011;1894;51.038;13.692;2023-08-17T07:06:37;22.23;;;16.13;;
3757;SDS011;1894;51.038;13.692;2023-08-17T07:09:04;12.10;;;10.50;;
3757;SDS011;1894;51.038;13.692;2023-08-17T07:11:31;13.60;;;9.63;;
3757;SDS011;1894;51.038;13.692;2023-08-17T07:13:59;21.93;;;17.33;;
3757;SDS011;1894;51.038;13.692;2023-08-17T07:16:26;11.37;;;10.27;;
3757;SDS011;1894;51.038;13.692;2023-08-17T07:18:53;13.93;;;10.40;;
3757;SDS011;1894;51.038;13.692;2023-08-17T07:21:20;13.83;;;9.60;;
3757;SDS011;1894;51.038;13.692;2023-08-17T07:23:47;13.43;;;10.80;;
3757;SDS011;1894;51.038;13.692;2023-08-17T07:26:16;14.83;;;11.97;;
3757;SDS011;1894;51.038;13.692;2023-08-17T07:28:47;16.53;;;12.00;;
3757;SDS011;1894;51.038;13.692;2023-08-17T07:31:14;12.13;;;10.97;;
3757;SDS011;1894;51.038;13.692;2023-08-17T07:33:42;14.20;;;12.10;;
3757;SDS011;1894;51.038;13.692;2023-08-17T07:36:09;14.93;;;11.20;;
3757;SDS011;1894;51.038;13.692;2023-08-17T07:38:36;13.20;;;11.90;;
3757;SDS011;1894;51.038;13.692;2023-08-17T07:41:03;26.63;;;11.80;;
3757;SDS011;1894;51.038;13.692;2023-08-17T07:43:31;13.57;;;11.40;;
3757;SDS011;1894;51.038;13.692;2023-08-17T07:45:58;13.20;;;10.63;;
3757;SDS011;1894;51.038;13.692;2023-08-17T07:48:25;17.93;;;11.70;;
3757;SDS011;1894;51.038;13.692;2023-08-17T07:50:52;12.90;;;10.27;;
3757;SDS011;1894;51.038;13.692;2023-08-17T07:53:20;12.93;;;11.60;;
3757;SDS011;1894;51.038;13.692;2023-08-17T07:55:47;11.60;;;10.50;;
3757;SDS011;1894;51.038;13.692;2023-08-17T07:58:16;12.53;;;11.33;;
3757;SDS011;1894;51.038;13.692;2023-08-17T08:00:43;13.47;;;12.17;;
3757;SDS011;1894;51.038;13.692;2023-08-17T08:03:11;17.07;;;11.67;;
3757;SDS011;1894;51.038;13.692;2023-08-17T08:05:38;12.33;;;10.67;;
3757;SDS011;1894;51.038;13.692;2023-08-17T08:08:05;13.80;;;9.67;;
3757;SDS011;1894;51.038;13.692;2023-08-17T08:10:32;12.27;;;11.17;;
3757;SDS011;1894;51.038;13.692;2023-08-17T08:12:59;11.27;;;10.20;;
3757;SDS011;1894;51.038;13.692;2023-08-17T08:15:26;12.83;;;11.50;;
3757;SDS011;1894;51.038;13.692;2023-08-17T08:17:53;13.57;;;10.47;;
3757;SDS011;1894;51.038;13.692;2023-08-17T08:20:21;12.80;;;11.30;;
3757;SDS011;1894;51.038;13.692;2023-08-17T08:22:48;11.80;;;10.70;;
3757;SDS011;1894;51.038;13.692;2023-08-17T08:25:15;13.30;;;10.10;;
3757;SDS011;1894;51.038;13.692;2023-08-17T08:27:42;9.73;;;8.50;;
3757;SDS011;1894;51.038;13.692;2023-08-17T08:30:09;13.00;;;9.07;;
3757;SDS011;1894;51.038;13.692;2023-08-17T08:32:37;11.93;;;9.70;;
3757;SDS011;1894;51.038;13.692;2023-08-17T08:35:05;11.50;;;9.77;;
3757;SDS011;1894;51.038;13.692;2023-08-17T08:37:32;13.53;;;9.73;;
3757;SDS011;1894;51.038;13.692;2023-08-17T08:39:59;11.40;;;9.20;;
3757;SDS011;1894;51.038;13.692;2023-08-17T08:42:27;13.27;;;10.57;;
3757;SDS011;1894;51.038;13.692;2023-08-17T08:44:54;11.10;;;9.90;;
3757;SDS011;1894;51.038;13.692;2023-08-17T08:47:22;9.07;;;8.23;;
3757;SDS011;1894;51.038;13.692;2023-08-17T08:50:02;10.20;;;9.20;;
3757;SDS011;1894;51.038;13.692;2023-08-17T08:52:34;9.50;;;8.60;;
3757;SDS011;1894;51.038;13.692;2023-08-17T08:57:44;11.50;;;9.10;;
3757;SDS011;1894;51.038;13.692;2023-08-17T09:00:17;9.87;;;9.07;;
3757;SDS011;1894;51.038;13.692;2023-08-17T09:02:45;13.53;;;9.40;;
3757;SDS011;1894;51.038;13.692;2023-08-17T09:05:13;9.50;;;8.07;;
3757;SDS011;1894;51.038;13.692;2023-08-17T09:07:41;8.67;;;7.97;;
3757;SDS011;1894;51.038;13.692;2023-08-17T09:10:09;8.80;;;7.70;;
3757;SDS011;1894;51.038;13.692;2023-08-17T09:12:38;8.13;;;7.53;;
3757;SDS011;1894;51.038;13.692;2023-08-17T09:15:07;9.07;;;8.00;;
3757;SDS011;1894;51.038;13.692;2023-08-17T09:17:35;12.07;;;8.30;;
3757;SDS011;1894;51.038;13.692;2023-08-17T09:20:02;7.93;;;7.30;;
3757;SDS011;1894;51.038;13.692;2023-08-17T09:22:38;10.30;;;8.87;;
3757;SDS011;1894;51.038;13.692;2023-08-17T09:25:10;8.20;;;7.50;;
3757;SDS011;1894;51.038;13.692;2023-08-17T09:27:38;8.97;;;8.17;;
3757;SDS011;1894;51.038;13.692;2023-08-17T09:30:11;8.23;;;7.13;;
3757;SDS011;1894;51.038;13.692;2023-08-17T09:32:38;9.30;;;8.40;;
3757;SDS011;1894;51.038;13.692;2023-08-17T09:35:07;10.10;;;7.50;;
3757;SDS011;1894;51.038;13.692;2023-08-17T09:37:35;8.47;;;7.30;;
3757;SDS011;1894;51.038;13.692;2023-08-17T09:40:02;10.20;;;8.03;;
3757;SDS011;1894;51.038;13.692;2023-08-17T09:42:30;9.47;;;8.53;;
3757;SDS011;1894;51.038;13.692;2023-08-17T09:45:02;10.60;;;8.17;;
3757;SDS011;1894;51.038;13.692;2023-08-17T09:47:29;7.73;;;7.07;;
3757;SDS011;1894;51.038;13.692;2023-08-17T09:49:57;9.70;;;8.23;;
3757;SDS011;1894;51.038;13.692;2023-08-17T09:52:24;9.70;;;7.47;;
3757;SDS011;1894;51.038;13.692;2023-08-17T09:54:52;7.20;;;6.00;;
3757;SDS011;1894;51.038;13.692;2023-08-17T09:57:21;7.40;;;6.77;;
3757;SDS011;1894;51.038;13.692;2023-08-17T09:59:49;6.77;;;6.27;;
3757;SDS011;1894;51.038;13.692;2023-08-17T10:02:22;8.00;;;7.20;;
3757;SDS011;1894;51.038;13.692;2023-08-17T10:04:52;7.40;;;6.83;;
3757;SDS011;1894;51.038;13.692;2023-08-17T10:07:21;10.07;;;7.60;;
3757;SDS011;1894;51.038;13.692;2023-08-17T10:10:00;14.57;;;6.57;;
3757;SDS011;1894;51.038;13.692;2023-08-17T10:12:33;8.90;;;7.60;;
3757;SDS011;1894;51.038;13.692;2023-08-17T10:15:17;7.03;;;6.47;;
3757;SDS011;1894;51.038;13.692;2023-08-17T10:20:24;7.63;;;6.63;;
3757;SDS011;1894;51.038;13.692;2023-08-17T10:22:59;8.03;;;6.73;;
3757;SDS011;1894;51.038;13.692;2023-08-17T10:25:37;8.00;;;7.30;;
3757;SDS011;1894;51.038;13.692;2023-08-17T10:28:06;9.00;;;8.20;;
3757;SDS011;1894;51.038;13.692;2023-08-17T10:30:36;10.37;;;8.53;;
3757;SDS011;1894;51.038;13.692;2023-08-17T10:33:05;8.30;;;7.23;;
3757;SDS011;1894;51.038;13.692;2023-08-17T10:35:33;7.70;;;7.00;;
3757;SDS011;1894;51.038;13.692;2023-08-17T10:38:02;7.57;;;6.97;;
3757;SDS011;1894;51.038;13.692;2023-08-17T10:40:36;8.37;;;7.70;;
3757;SDS011;1894;51.038;13.692;2023-08-17T10:43:07;8.33;;;7.53;;
3757;SDS011;1894;51.038;13.692;2023-08-17T10:45:35;7.73;;;7.00;;
3757;SDS011;1894;51.038;13.692;2023-08-17T10:50:32;8.00;;;7.33;;
3757;SDS011;1894;51.038;13.692;2023-08-17T10:53:08;7.83;;;7.00;;
3757;SDS011;1894;51.038;13.692;2023-08-17T10:55:42;9.27;;;8.13;;
3757;SDS011;1894;51.038;13.692;2023-08-17T10:58:18;8.50;;;7.30;;
3757;SDS011;1894;51.038;13.692;2023-08-17T11:00:45;8.90;;;8.00;;
3757;SDS011;1894;51.038;13.692;2023-08-17T11:03:19;8.97;;;8.20;;
3757;SDS011;1894;51.038;13.692;2023-08-17T11:05:55;10.13;;;8.23;;
3757;SDS011;1894;51.038;13.692;2023-08-17T11:08:34;12.00;;;8.00;;
3757;SDS011;1894;51.038;13.692;2023-08-17T11:13:42;8.13;;;7.37;;
3757;SDS011;1894;51.038;13.692;2023-08-17T11:16:14;9.83;;;8.10;;
3757;SDS011;1894;51.038;13.692;2023-08-17T11:18:45;11.77;;;8.03;;
3757;SDS011;1894;51.038;13.692;2023-08-17T11:21:19;8.40;;;7.70;;
3757;SDS011;1894;51.038;13.692;2023-08-17T11:23:47;10.73;;;8.53;;
3757;SDS011;1894;51.038;13.692;2023-08-17T11:26:18;8.60;;;7.37;;
3757;SDS011;1894;51.038;13.692;2023-08-17T11:28:46;8.47;;;7.70;;
3757;SDS011;1894;51.038;13.692;2023-08-17T11:31:14;8.30;;;7.70;;
3757;SDS011;1894;51.038;13.692;2023-08-17T11:33:44;26.87;;;8.07;;
3757;SDS011;1894;51.038;13.692;2023-08-17T11:36:13;9.03;;;7.13;;
3757;SDS011;1894;51.038;13.692;2023-08-17T11:38:42;8.23;;;6.93;;
3757;SDS011;1894;51.038;13.692;2023-08-17T11:41:10;7.63;;;7.03;;
3757;SDS011;1894;51.038;13.692;2023-08-17T11:43:42;9.83;;;7.70;;
3757;SDS011;1894;51.038;13.692;2023-08-17T11:46:11;7.40;;;6.80;;
3757;SDS011;1894;51.038;13.692;2023-08-17T11:48:39;8.63;;;7.87;;
3757;SDS011;1894;51.038;13.692;2023-08-17T11:51:06;9.23;;;7.80;;
3757;SDS011;1894;51.038;13.692;2023-08-17T11:53:34;7.00;;;6.50;;
3757;SDS011;1894;51.038;13.692;2023-08-17T11:56:07;7.10;;;6.60;;
3757;SDS011;1894;51.038;13.692;2023-08-17T11:58:43;7.03;;;5.80;;
3757;SDS011;1894;51.038;13.692;2023-08-17T12:01:13;6.50;;;5.90;;
3757;SDS011;1894;51.038;13.692;2023-08-17T12:03:44;6.30;;;5.80;;
3757;SDS011;1894;51.038;13.692;2023-08-17T12:06:12;6.80;;;5.63;;
3757;SDS011;1894;51.038;13.692;2023-08-17T12:08:44;6.60;;;6.10;;
3757;SDS011;1894;51.038;13.692;2023-08-17T12:11:15;6.70;;;6.20;;
3757;SDS011;1894;51.038;13.692;2023-08-17T12:13:48;7.27;;;5.60;;
3757;SDS011;1894;51.038;13.692;2023-08-17T12:16:17;6.97;;;5.87;;
3757;SDS011;1894;51.038;13.692;2023-08-17T12:18:50;5.73;;;5.23;;
3757;SDS011;1894;51.038;13.692;2023-08-17T12:21:21;5.87;;;5.47;;
3757;SDS011;1894;51.038;13.692;2023-08-17T12:23:50;4.33;;;4.13;;
3757;SDS011;1894;51.038;13.692;2023-08-17T12:26:21;5.00;;;4.20;;
3757;SDS011;1894;51.038;13.692;2023-08-17T12:28:51;4.10;;;3.43;;
3757;SDS011;1894;51.038;13.692;2023-08-17T12:31:21;4.00;;;3.83;;
3757;SDS011;1894;51.038;13.692;2023-08-17T12:33:50;3.10;;;2.80;;
3757;SDS011;1894;51.038;13.692;2023-08-17T12:36:18;3.67;;;2.83;;
3757;SDS011;1894;51.038;13.692;2023-08-17T12:38:47;3.87;;;2.97;;
3757;SDS011;1894;51.038;13.692;2023-08-17T12:41:15;3.03;;;2.83;;
3757;SDS011;1894;51.038;13.692;2023-08-17T12:43:44;5.60;;;3.20;;
3757;SDS011;1894;51.038;13.692;2023-08-17T12:46:11;4.23;;;3.03;;
3757;SDS011;1894;51.038;13.692;2023-08-17T12:48:38;3.70;;;2.70;;
3757;SDS011;1894;51.038;13.692;2023-08-17T12:51:06;2.63;;;2.37;;
3757;SDS011;1894;51.038;13.692;2023-08-17T12:53:33;3.03;;;2.60;;
3757;SDS011;1894;51.038;13.692;2023-08-17T12:56:00;2.87;;;2.70;;
3757;SDS011;1894;51.038;13.692;2023-08-17T12:58:27;3.67;;;3.37;;
3757;SDS011;1894;51.038;13.692;2023-08-17T13:00:54;5.20;;;3.27;;
3757;SDS011;1894;51.038;13.692;2023-08-17T13:03:22;3.60;;;3.33;;
3757;SDS011;1894;51.038;13.692;2023-08-17T13:05:49;5.63;;;4.00;;
3757;SDS011;1894;51.038;13.692;2023-08-17T13:08:16;6.47;;;5.27;;
3757;SDS011;1894;51.038;13.692;2023-08-17T13:11:02;4.43;;;3.80;;
3757;SDS011;1894;51.038;13.692;2023-08-17T13:13:29;5.07;;;4.67;;
3757;SDS011;1894;51.038;13.692;2023-08-17T13:15:56;4.87;;;4.27;;
3757;SDS011;1894;51.038;13.692;2023-08-17T13:18:23;4.17;;;3.87;;
3757;SDS011;1894;51.038;13.692;2023-08-17T13:20:50;9.73;;;4.57;;
3757;SDS011;1894;51.038;13.692;2023-08-17T13:23:17;8.83;;;4.30;;
3757;SDS011;1894;51.038;13.692;2023-08-17T13:25:45;5.13;;;4.20;;
3757;SDS011;1894;51.038;13.692;2023-08-17T13:28:12;4.60;;;4.20;;
3757;SDS011;1894;51.038;13.692;2023-08-17T13:30:39;8.57;;;3.73;;
3757;SDS011;1894;51.038;13.692;2023-08-17T13:33:06;5.57;;;3.87;;
3757;SDS011;1894;51.038;13.692;2023-08-17T13:35:34;3.07;;;2.90;;
3757;SDS011;1894;51.038;13.692;2023-08-17T13:38:01;6.57;;;3.47;;
3757;SDS011;1894;51.038;13.692;2023-08-17T13:40:32;3.87;;;3.57;;
3757;SDS011;1894;51.038;13.692;2023-08-17T13:43:00;5.30;;;3.63;;
3757;SDS011;1894;51.038;13.692;2023-08-17T13:45:28;4.33;;;4.03;;
3757;SDS011;1894;51.038;13.692;2023-08-17T13:47:55;4.37;;;3.97;;
3757;SDS011;1894;51.038;13.692;2023-08-17T13:50:22;8.50;;;4.03;;
3757;SDS011;1894;51.038;13.692;2023-08-17T13:52:50;4.37;;;3.97;;
3757;SDS011;1894;51.038;13.692;2023-08-17T13:55:17;7.10;;;4.40;;
3757;SDS011;1894;51.038;13.692;2023-08-17T13:57:44;7.20;;;5.20;;
3757;SDS011;1894;51.038;13.692;2023-08-17T14:00:12;6.07;;;3.73;;
3757;SDS011;1894;51.038;13.692;2023-08-17T14:02:39;5.33;;;4.93;;
3757;SDS011;1894;51.038;13.692;2023-08-17T14:05:07;8.80;;;5.50;;
3757;SDS011;1894;51.038;13.692;2023-08-17T14:07:34;5.20;;;4.70;;
3757;SDS011;1894;51.038;13.692;2023-08-17T14:10:01;6.13;;;5.70;;
3757;SDS011;1894;51.038;13.692;2023-08-17T14:12:37;7.57;;;4.77;;
3757;SDS011;1894;51.038;13.692;2023-08-17T14:15:04;6.23;;;4.87;;
3757;SDS011;1894;51.038;13.692;2023-08-17T14:17:33;5.83;;;5.33;;
3757;SDS011;1894;51.038;13.692;2023-08-17T14:20:00;5.43;;;4.80;;
3757;SDS011;1894;51.038;13.692;2023-08-17T14:22:27;7.23;;;4.60;;
3757;SDS011;1894;51.038;13.692;2023-08-17T14:24:55;5.67;;;5.10;;
3757;SDS011;1894;51.038;13.692;2023-08-17T14:27:22;6.47;;;5.90;;
3757;SDS011;1894;51.038;13.692;2023-08-17T14:29:49;8.67;;;5.03;;
3757;SDS011;1894;51.038;13.692;2023-08-17T14:32:16;7.27;;;4.73;;
3757;SDS011;1894;51.038;13.692;2023-08-17T14:34:43;11.90;;;5.40;;
3757;SDS011;1894;51.038;13.692;2023-08-17T14:37:11;5.30;;;4.80;;
3757;SDS011;1894;51.038;13.692;2023-08-17T14:39:38;6.10;;;5.60;;
3757;SDS011;1894;51.038;13.692;2023-08-17T14:42:05;5.60;;;5.03;;
3757;SDS011;1894;51.038;13.692;2023-08-17T14:44:32;6.03;;;5.40;;
3757;SDS011;1894;51.038;13.692;2023-08-17T14:46:59;6.60;;;5.77;;
3757;SDS011;1894;51.038;13.692;2023-08-17T14:49:27;5.00;;;4.70;;
3757;SDS011;1894;51.038;13.692;2023-08-17T14:51:54;8.40;;;4.90;;
3757;SDS011;1894;51.038;13.692;2023-08-17T14:54:21;4.80;;;4.40;;
3757;SDS011;1894;51.038;13.692;2023-08-17T14:56:48;9.30;;;3.87;;
3757;SDS011;1894;51.038;13.692;2023-08-17T14:59:15;3.83;;;3.57;;
3757;SDS011;1894;51.038;13.692;2023-08-17T15:01:43;9.93;;;4.43;;
3757;SDS011;1894;51.038;13.692;2023-08-17T15:04:11;4.80;;;3.83;;
3757;SDS011;1894;51.038;13.692;2023-08-17T15:06:38;3.77;;;3.57;;
3757;SDS011;1894;51.038;13.692;2023-08-17T15:09:08;3.87;;;3.53;;
3757;SDS011;1894;51.038;13.692;2023-08-17T15:11:35;4.73;;;3.37;;